23:24
Airports
History
Links
Donate
Help keep this website running!
PayPal
Bitcoin
This page is community maintained. The information is intended for PC simulator navigation or reference.
Always use approved charts for navigation.
ETSB
BUCHEL
BUCHEL (ETSB)
Büchel, Rheinland-Pfalz, Germany (56823)
(C)
Lat/Lng:50° 10' 25.71" N / 7° 3' 47.96" E
50.173808 / 7.063321
Elevation:1568'ft / 478mMSL
ID / ICAO:ETSB
Runways:1
Longest:03-21
Asphalt 2,511m / 8,237ft
Controlled:Yes
METAR22:20 GMT 2018-02-19
Altimeter: 29.97
Visibility: 6.2 statute miles
Wind: 2 knots (from 110°)
Temp: -2°c / 28°f
Humidity: 86.1%

METAR: ETSB 192220Z AUTO 11002KT 9999 // ////// M02/M04 Q1015 ///

(Powered by phpweather)
Airport Radio Frequencies
Tower: 122.1
Approach: 125.6, 123.3, 130.15, 139.25
Nearby VORs <50NM
Nearby NDBs
Runway 03 / 21
Dimensions:2510.6 x 45.1m 8237' x 148'ft
Surface:Asphalt
Edge Lights:High intensity
Runway 03 [A]Runway 21 [B]
Heading:029°TH 209°TH
Lat:
Lng:
50° 9' 50.29"N
7° 3' 16.96"E
50° 11' 1.13"N
7° 4' 18.95"E
ALS:MALSMALS
User Notes and Comments
50° 10' 25.71" N / 7° 3' 47.96" E
Distance To
Airport ID:
Nearby Airports
(C) MENDIG 17.3 NM
ETHM ( WX ) NE 39°
(C) Frankfurt Hahn 18.0 NM
EDFH ( WX ) SSE 150°
(C) SPANGDAHLEM AB 21.2 NM
ETAD ( WX ) SW 229°
(C) Koblenz Winningen 23.0 NM
EDRK ENE 62°
(C) TRIER FOHREN 24.6 NM
EDRT SSW 209°
(U) Bad Neuenahr Ahrweiler 26.8 NM
EDRA N
(C) BITBURG 27.2 NM
EDRB SW 234°
VFR Chart
Flight Planning at SkyVector.com